Airfield :
LOGIN :

Register | Disclaimer

   EN    FR    IT 

 










Legend :    VFR   Marginal VFR   IFR   Intensive IFR   Very Intensive IFR
Visi :
Ceiling :
>= 8 km
>= 3000ft
5 to 8 km
1000 to 3000 ft
1500m to 5 km
500 to 1000 ft
800 to 1500m
200 to 500 ft
< 800m
< 200 ft
Symbols :   Thunderstorms  Fog  Heavy snow  Heavy precipitations  Wind > 20 kt
SIGMETs :     Misc.  Thunderstorms  Icing  Turbulence  Mountain Waves  Volcanic Ashes







- Airport Elevation : 699 ft
- IATA code : PAD


EDLP - Paderborn Lippstadt

CURRENT METAR :
  • 211020Z 26005KT 210V310 2500 -SN BR BKN003 01/00 Q1013

EXPIRED METARs :
  • 210950Z 26004KT 230V300 3500 BR BKN003 00/00 Q1013
  • 210920Z 25005KT 220V290 4500 BR BKN003 01/00 Q1013
  • 210850Z 27004KT 210V320 4500 BR BKN003 01/00 Q1012
  • 210820Z 28004KT 220V320 2500 -RASN BR BKN003 01/00 Q1012
  • 210750Z 28004KT 240V310 4500 BR BKN004 00/00 Q1011

TAF AMD TAF EDLP
Valid from the 21 at 10:00 until the 22 at 06:00 UTC


211008Z 2110/2206 27006KT 3500 BR OVC001
BECMG 2110/2112 BKN006
BECMG 2112/2114 9999 SCT015
BECMG 2114/2117 20006KT
BECMG 2121/2124 14010KT
TEMPO 2201/2206 2000 -SN BKN008
No reported NOTAMs for that airfield.
1 SIGMET reported for the Langen FIR (EDGG) :
 
Severe icing
EDGG SIGMET 1 VALID 210930/211200 EDZF
EDGG LANGEN FIR SEV ICE OBS WI N4922 E01057 - N4838 E00942 - N4808 E00936 - N4742 E00728 - N4742 E00725 - N4843 E00750 - N4922 E01057 4000FT/FL070 MOV SE WKN=



MET'MAP, your aeronautical weather chart ! - Copyright ORBIFLY December 2007 - Disclaimer

ORBIFLY MET'MAP TEAM :

Programming & Development : Alexandra Zaïnal
Concept & Development : Baudouin d'Aumeries
Co-Development & Prog : Marc-Olivier Méhu
Technical & hardware support : Manuel Goepfert

Contact : metmap@orbifly.com




SOURCES & CREDITS :

   NOAA